Sam Hawk — D5IJ9 — position and weather

sailwx.info

Track history (hours):
 
Tides and Currents Weather Stations Pressure Air Temp Water Temp Dewpoint Dewpoint Depression Visibility Wind Speed Wind Dir Waves Ship Positions

Sam Hawk

Last reported at 2017-Nov-14 21:19 UTC. Time now 2017-Nov-23 09:38 UTC.
Position N 37°31' W 030°07'.
Warning: this ship's position is 8 days out of date.

Length 190 m; draft 11 m.

Type: Cargo ship. MMSI: 636016919.

Date/timePositionNaut miles runAvg speedWind from/ knotsBaromVisibWave heightAir tempDewpointWater temp
2017-Nov-14 21:19N 37°31' W 030°07'412.3
2017-Nov-14 21:00N 37°31' W 030°02'612.4
2017-Nov-14 20:30N 37°30' W 029°55'612.3
2017-Nov-14 20:00N 37°30' W 029°47'612.3
2017-Nov-14 19:30N 37°29' W 029°39'612.3
2017-Nov-14 19:00N 37°28' W 029°31'612.4
2017-Nov-14 18:30N 37°28' W 029°24'612.6
2017-Nov-14 18:00N 37°27' W 029°16'613.0
2017-Nov-14 17:30N 37°26' W 029°08'612.9
2017-Nov-14 17:01N 37°26' W 028°60'612.8
2017-Nov-14 16:31N 37°25' W 028°52'612.8
2017-Nov-14 16:00N 37°25' W 028°44'713.0
2017-Nov-14 15:30N 37°24' W 028°35'713.1
2017-Nov-14 15:00N 37°23' W 028°27'713.0
2017-Nov-14 14:30N 37°23' W 028°19'612.6
2017-Nov-14 14:00N 37°22' W 028°11'612.8
2017-Nov-14 13:30N 37°22' W 028°03'713.2
2017-Nov-14 13:00N 37°21' W 027°55'612.7
2017-Nov-14 12:30N 37°21' W 027°47'612.4
2017-Nov-14 11:59N 37°20' W 027°39'1912.5
2017-Nov-14 10:27N 37°18' W 027°15'612.4
2017-Nov-14 10:00N 37°18' W 027°08'611.9
2017-Nov-14 09:30N 37°17' W 027°00'612.0
2017-Nov-14 09:00N 37°17' W 026°53'612.4
2017-Nov-14 08:30N 37°16' W 026°45'612.4
2017-Nov-14 08:00N 37°15' W 026°37'612.3
2017-Nov-14 07:30N 37°15' W 026°30'612.2
2017-Nov-14 07:00N 37°14' W 026°22'612.4
2017-Nov-14 06:31N 37°14' W 026°14'612.7
2017-Nov-14 06:00N 37°13' W 026°06'612.7
2017-Nov-14 05:30N 37°13' W 025°58'612.4
2017-Nov-14 05:00N 37°13' W 025°50'612.4
2017-Nov-14 04:30N 37°12' W 025°43'612.5
2017-Nov-14 04:00N 37°11' W 025°35'612.6
2017-Nov-14 03:30N 37°10' W 025°27'612.7
2017-Nov-14 03:00N 37°10' W 025°19'612.8
2017-Nov-14 02:30N 37°09' W 025°11'612.8
2017-Nov-14 02:00N 37°09' W 025°03'612.4
2017-Nov-14 01:30N 37°08' W 024°55'612.6
2017-Nov-14 01:00N 37°08' W 024°47'612.7
2017-Nov-14 00:30N 37°07' W 024°40'713.1
2017-Nov-14 00:00N 37°07' W 024°31'612.5
2017-Nov-13 23:31N 37°06' W 024°24'612.5
2017-Nov-13 23:00N 37°06' W 024°16'612.5
2017-Nov-13 22:30N 37°06' W 024°08'612.4
2017-Nov-13 22:00N 37°05' W 024°00'55013.1
2017-Nov-12 03:55N 36°21' W 012°36'612.9
2017-Nov-12 03:28N 36°21' W 012°29'2812.7
2017-Nov-12 01:17N 36°19' W 011°55'8212.9
2017-Nov-11 18:57N 36°12' W 010°13'612.9
2017-Nov-11 18:30N 36°12' W 010°06'912.9
2017-Nov-11 17:46N 36°11' W 009°55'312.9
2017-Nov-11 17:31N 36°11' W 009°50'712.9
2017-Nov-11 17:00N 36°10' W 009°42'1012.8
2017-Nov-11 16:14N 36°09' W 009°30'312.8
2017-Nov-11 16:00N 36°09' W 009°27'712.8
2017-Nov-11 15:28N 36°09' W 009°18'18412.7
2017-Nov-11 00:57N 35°59' W 005°31'511.3
2017-Nov-11 00:30N 36°00' W 005°25'611.9
2017-Nov-11 00:00N 36°06' W 005°23'1 0.9
2017-Nov-10 22:33N 36°07' W 005°22'0 0.1
2017-Nov-10 22:15N 36°07' W 005°22'0 0.0
2017-Nov-10 21:00N 36°07' W 005°22'0 0.1
2017-Nov-10 20:24N 36°07' W 005°22'1 0.1
2017-Nov-10 12:46N 36°06' W 005°22'2 6.1
2017-Nov-10 12:29N 36°05' W 005°20'3 5.4
2017-Nov-10 12:00N 36°05' W 005°17'4 8.3
2017-Nov-10 11:30N 36°06' W 005°13'3 0.5
2017-Nov-10 05:13N 36°09' W 005°11'0 0.9
2017-Nov-10 05:00N 36°09' W 005°11'1 0.6
2017-Nov-10 03:46N 36°10' W 005°10'0 0.2
2017-Nov-10 03:24N 36°10' W 005°10'1 1.0
2017-Nov-10 02:54N 36°09' W 005°11'2 4.6
2017-Nov-10 02:30N 36°08' W 005°13'3 6.2
2017-Nov-10 02:00N 36°06' W 005°15'1 1.4
2017-Nov-10 01:30N 36°06' W 005°14'1 1.4
2017-Nov-10 01:00N 36°07' W 005°14'1 1.2
2017-Nov-10 00:29N 36°07' W 005°13'0 0.8
2017-Nov-09 23:58N 36°07' W 005°13'0 0.8
2017-Nov-09 23:30N 36°07' W 005°12'0 0.8
2017-Nov-09 23:00N 36°07' W 005°12'1 0.9
2017-Nov-09 22:27N 36°08' W 005°11'0 0.8
2017-Nov-09 21:57N 36°08' W 005°11'  
2017-Nov-06 02:30N 36°25' E 014°20'612.6
2017-Nov-06 02:00N 36°24' E 014°28'612.7
2017-Nov-06 01:30N 36°24' E 014°36'712.7
2017-Nov-06 00:55N 36°23' E 014°45'  
Track history (hours):
 
Tides and Currents Weather Stations Pressure Air Temp Water Temp Dewpoint Dewpoint Depression Visibility Wind Speed Wind Dir Waves Ship Positions

Sam Hawk

Last reported at 2017-Nov-14 21:19 UTC. Time now 2017-Nov-23 09:38 UTC.
Position N 37°31' W 030°07'.
Warning: this ship's position is 8 days out of date.

Length 190 m; draft 11 m.

Type: Cargo ship. MMSI: 636016919.

Date/timePositionNaut miles runAvg speedWind from/ knotsBaromVisibWave heightAir tempDewpointWater temp
2017-Nov-14 21:19N 37°31' W 030°07'412.3
2017-Nov-14 21:00N 37°31' W 030°02'612.4
2017-Nov-14 20:30N 37°30' W 029°55'612.3
2017-Nov-14 20:00N 37°30' W 029°47'612.3
2017-Nov-14 19:30N 37°29' W 029°39'612.3
2017-Nov-14 19:00N 37°28' W 029°31'612.4
2017-Nov-14 18:30N 37°28' W 029°24'612.6
2017-Nov-14 18:00N 37°27' W 029°16'613.0
2017-Nov-14 17:30N 37°26' W 029°08'612.9
2017-Nov-14 17:01N 37°26' W 028°60'612.8
2017-Nov-14 16:31N 37°25' W 028°52'612.8
2017-Nov-14 16:00N 37°25' W 028°44'713.0
2017-Nov-14 15:30N 37°24' W 028°35'713.1
2017-Nov-14 15:00N 37°23' W 028°27'713.0
2017-Nov-14 14:30N 37°23' W 028°19'612.6
2017-Nov-14 14:00N 37°22' W 028°11'612.8
2017-Nov-14 13:30N 37°22' W 028°03'713.2
2017-Nov-14 13:00N 37°21' W 027°55'612.7
2017-Nov-14 12:30N 37°21' W 027°47'612.4
2017-Nov-14 11:59N 37°20' W 027°39'1912.5
2017-Nov-14 10:27N 37°18' W 027°15'612.4
2017-Nov-14 10:00N 37°18' W 027°08'611.9
2017-Nov-14 09:30N 37°17' W 027°00'612.0
2017-Nov-14 09:00N 37°17' W 026°53'612.4
2017-Nov-14 08:30N 37°16' W 026°45'612.4
2017-Nov-14 08:00N 37°15' W 026°37'612.3
2017-Nov-14 07:30N 37°15' W 026°30'612.2
2017-Nov-14 07:00N 37°14' W 026°22'612.4
2017-Nov-14 06:31N 37°14' W 026°14'612.7
2017-Nov-14 06:00N 37°13' W 026°06'612.7
2017-Nov-14 05:30N 37°13' W 025°58'612.4
2017-Nov-14 05:00N 37°13' W 025°50'612.4
2017-Nov-14 04:30N 37°12' W 025°43'612.5
2017-Nov-14 04:00N 37°11' W 025°35'612.6
2017-Nov-14 03:30N 37°10' W 025°27'612.7
2017-Nov-14 03:00N 37°10' W 025°19'612.8
2017-Nov-14 02:30N 37°09' W 025°11'612.8
2017-Nov-14 02:00N 37°09' W 025°03'612.4
2017-Nov-14 01:30N 37°08' W 024°55'612.6
2017-Nov-14 01:00N 37°08' W 024°47'612.7
2017-Nov-14 00:30N 37°07' W 024°40'713.1
2017-Nov-14 00:00N 37°07' W 024°31'612.5
2017-Nov-13 23:31N 37°06' W 024°24'612.5
2017-Nov-13 23:00N 37°06' W 024°16'612.5
2017-Nov-13 22:30N 37°06' W 024°08'612.4
2017-Nov-13 22:00N 37°05' W 024°00'55013.1
2017-Nov-12 03:55N 36°21' W 012°36'612.9
2017-Nov-12 03:28N 36°21' W 012°29'2812.7
2017-Nov-12 01:17N 36°19' W 011°55'8212.9
2017-Nov-11 18:57N 36°12' W 010°13'612.9
2017-Nov-11 18:30N 36°12' W 010°06'912.9
2017-Nov-11 17:46N 36°11' W 009°55'312.9
2017-Nov-11 17:31N 36°11' W 009°50'712.9
2017-Nov-11 17:00N 36°10' W 009°42'1012.8
2017-Nov-11 16:14N 36°09' W 009°30'312.8
2017-Nov-11 16:00N 36°09' W 009°27'712.8
2017-Nov-11 15:28N 36°09' W 009°18'18412.7
2017-Nov-11 00:57N 35°59' W 005°31'511.3
2017-Nov-11 00:30N 36°00' W 005°25'611.9
2017-Nov-11 00:00N 36°06' W 005°23'1 0.9
2017-Nov-10 22:33N 36°07' W 005°22'0 0.1
2017-Nov-10 22:15N 36°07' W 005°22'0 0.0
2017-Nov-10 21:00N 36°07' W 005°22'0 0.1
2017-Nov-10 20:24N 36°07' W 005°22'1 0.1
2017-Nov-10 12:46N 36°06' W 005°22'2 6.1
2017-Nov-10 12:29N 36°05' W 005°20'3 5.4
2017-Nov-10 12:00N 36°05' W 005°17'4 8.3
2017-Nov-10 11:30N 36°06' W 005°13'3 0.5
2017-Nov-10 05:13N 36°09' W 005°11'0 0.9
2017-Nov-10 05:00N 36°09' W 005°11'1 0.6
2017-Nov-10 03:46N 36°10' W 005°10'0 0.2
2017-Nov-10 03:24N 36°10' W 005°10'1 1.0
2017-Nov-10 02:54N 36°09' W 005°11'2 4.6
2017-Nov-10 02:30N 36°08' W 005°13'3 6.2
2017-Nov-10 02:00N 36°06' W 005°15'1 1.4
2017-Nov-10 01:30N 36°06' W 005°14'1 1.4
2017-Nov-10 01:00N 36°07' W 005°14'1 1.2
2017-Nov-10 00:29N 36°07' W 005°13'0 0.8
2017-Nov-09 23:58N 36°07' W 005°13'0 0.8
2017-Nov-09 23:30N 36°07' W 005°12'0 0.8
2017-Nov-09 23:00N 36°07' W 005°12'1 0.9
2017-Nov-09 22:27N 36°08' W 005°11'0 0.8
2017-Nov-09 21:57N 36°08' W 005°11'  
2017-Nov-06 02:30N 36°25' E 014°20'612.6
2017-Nov-06 02:00N 36°24' E 014°28'612.7
2017-Nov-06 01:30N 36°24' E 014°36'712.7
2017-Nov-06 00:55N 36°23' E 014°45'  

Dump ship's entire track history